createdAt,value
2017-09-19T00:01:15.685Z,99.90
2017-09-19T00:03:43.990Z,99.90
2017-09-19T00:06:13.230Z,99.90
2017-09-19T00:08:42.070Z,99.90
2017-09-19T00:11:11.109Z,99.90
2017-09-19T00:13:39.488Z,99.90
2017-09-19T00:16:07.799Z,99.90
2017-09-19T00:18:36.924Z,99.90
2017-09-19T00:21:05.517Z,99.90
2017-09-19T00:23:33.794Z,99.90
2017-09-19T00:26:02.072Z,99.90
2017-09-19T00:28:30.678Z,99.90
2017-09-19T00:30:58.989Z,99.90
2017-09-19T00:33:27.277Z,99.90
2017-09-19T00:35:55.981Z,99.90
2017-09-19T00:38:24.297Z,99.90
2017-09-19T00:40:52.888Z,99.90
2017-09-19T00:43:21.604Z,99.90
2017-09-19T00:45:51.840Z,99.90
2017-09-19T00:48:21.007Z,99.90
2017-09-19T00:50:49.593Z,99.90
2017-09-19T00:53:18.241Z,99.90
2017-09-19T00:55:47.331Z,99.90
2017-09-19T00:58:15.684Z,99.90
2017-09-19T01:00:44.758Z,99.90
2017-09-19T01:03:13.117Z,99.90
2017-09-19T01:05:41.518Z,99.90
2017-09-19T01:08:09.963Z,99.90
2017-09-19T01:10:39.024Z,99.90
2017-09-19T01:13:08.832Z,99.90
2017-09-19T01:15:37.793Z,99.90
2017-09-19T01:18:06.165Z,99.90
2017-09-19T01:20:35.287Z,99.90
2017-09-19T01:23:03.589Z,99.90
2017-09-19T01:25:31.897Z,99.90
2017-09-19T01:28:00.186Z,99.90
2017-09-19T01:30:28.500Z,99.90
2017-09-19T01:32:56.821Z,99.90
2017-09-19T01:35:25.329Z,99.90
2017-09-19T01:37:54.458Z,99.90
2017-09-19T01:40:22.767Z,99.90
2017-09-19T01:42:51.060Z,99.90
2017-09-19T01:45:19.876Z,99.90
2017-09-19T01:47:48.974Z,99.90
2017-09-19T01:50:17.266Z,99.90
2017-09-19T01:52:45.592Z,99.90
2017-09-19T01:55:14.549Z,99.90
2017-09-19T01:57:43.495Z,99.90
2017-09-19T02:00:11.790Z,99.90
2017-09-19T02:02:40.115Z,99.90
2017-09-19T02:05:11.515Z,99.90
2017-09-19T02:07:39.837Z,99.90
2017-09-19T02:10:08.188Z,99.90
2017-09-19T02:12:36.511Z,99.90
2017-09-19T02:15:04.821Z,99.90
2017-09-19T02:17:33.936Z,99.90
2017-09-19T02:20:02.502Z,99.90
2017-09-19T02:29:18.760Z,99.90
2017-09-19T02:31:47.048Z,99.90
2017-09-19T02:34:15.403Z,99.90
2017-09-19T02:36:43.687Z,99.90
2017-09-19T02:39:11.996Z,99.90
2017-09-19T02:41:40.601Z,99.90
2017-09-19T02:44:08.886Z,99.90
2017-09-19T02:46:38.704Z,99.90
2017-09-19T02:49:07.771Z,99.90
2017-09-19T02:51:37.582Z,99.90
2017-09-19T02:54:07.430Z,99.90
2017-09-19T02:56:36.466Z,99.90
2017-09-19T02:59:04.782Z,99.90
2017-09-19T03:01:33.138Z,99.90
2017-09-19T03:04:01.422Z,99.90
2017-09-19T03:06:30.572Z,99.90
2017-09-19T03:08:58.862Z,99.90
2017-09-19T03:11:27.184Z,99.90
2017-09-19T03:13:55.479Z,99.90
2017-09-19T03:16:23.770Z,99.90
2017-09-19T03:18:52.085Z,99.90
2017-09-19T03:21:21.139Z,99.90
2017-09-19T03:23:51.085Z,99.90
2017-09-19T03:26:19.375Z,99.90
2017-09-19T03:28:47.720Z,99.90
2017-09-19T03:31:16.019Z,99.90
2017-09-19T03:33:44.324Z,99.90
2017-09-19T03:36:13.456Z,99.90
2017-09-19T03:38:41.753Z,99.90
2017-09-19T03:41:10.103Z,99.90
2017-09-19T03:43:39.165Z,99.90
2017-09-19T03:46:08.060Z,99.90
2017-09-19T03:48:36.358Z,99.90
2017-09-19T03:51:07.853Z,99.90
2017-09-19T03:53:36.417Z,99.90
2017-09-19T03:56:05.587Z,99.90
2017-09-19T03:58:34.163Z,99.90
2017-09-19T04:01:02.457Z,99.90
2017-09-19T04:03:32.247Z,99.90
2017-09-19T04:06:00.566Z,99.90
2017-09-19T04:08:28.890Z,99.90
2017-09-19T04:10:57.193Z,99.90
2017-09-19T04:13:25.511Z,99.90
2017-09-19T04:15:53.815Z,99.90
2017-09-19T04:18:22.916Z,99.90
2017-09-19T04:20:52.008Z,99.90
2017-09-19T04:23:20.290Z,99.90
2017-09-19T04:25:49.378Z,99.90
2017-09-19T04:28:17.668Z,99.90
2017-09-19T04:30:46.026Z,99.90
2017-09-19T04:33:14.316Z,99.90
2017-09-19T04:35:42.607Z,99.90
2017-09-19T04:38:10.959Z,99.90
2017-09-19T04:40:39.298Z,99.90
2017-09-19T04:43:08.371Z,99.90
2017-09-19T04:45:37.430Z,99.90
2017-09-19T04:48:05.727Z,99.90
2017-09-19T04:50:34.018Z,99.90
2017-09-19T04:53:02.376Z,99.90
2017-09-19T04:55:30.674Z,99.90
2017-09-19T04:57:58.994Z,99.90
2017-09-19T05:00:27.302Z,99.90
2017-09-19T05:02:55.613Z,99.90
2017-09-19T05:05:23.948Z,99.90
2017-09-19T05:07:52.995Z,99.90
2017-09-19T05:10:21.375Z,99.90
2017-09-19T05:12:49.661Z,99.90
2017-09-19T05:15:17.975Z,99.90
2017-09-19T05:17:46.375Z,99.90
2017-09-19T05:20:15.455Z,99.90
2017-09-19T05:22:43.772Z,99.90
2017-09-19T05:25:12.423Z,99.90
2017-09-19T05:27:40.711Z,99.90
2017-09-19T05:30:09.772Z,99.90
2017-09-19T05:32:38.094Z,99.90
2017-09-19T05:35:06.369Z,99.90
2017-09-19T05:37:34.707Z,99.90
2017-09-19T05:40:03.012Z,99.90
2017-09-19T05:42:31.621Z,99.90
2017-09-19T05:45:01.046Z,99.90
2017-09-19T05:47:30.127Z,99.90
2017-09-19T05:49:58.411Z,99.90
2017-09-19T05:52:27.026Z,99.90
2017-09-19T05:54:56.090Z,99.90
2017-09-19T05:57:24.456Z,99.90
2017-09-19T05:59:52.796Z,99.90
2017-09-19T06:02:21.869Z,99.90
2017-09-19T06:04:52.376Z,99.90
2017-09-19T06:07:20.687Z,99.90
2017-09-19T06:09:49.937Z,99.90
2017-09-19T06:12:19.095Z,99.90
2017-09-19T06:14:48.151Z,99.90
2017-09-19T06:17:16.428Z,99.90
2017-09-19T06:19:45.095Z,99.90
2017-09-19T06:22:13.391Z,99.90
2017-09-19T06:24:41.721Z,99.90
2017-09-19T06:27:10.383Z,99.90
2017-09-19T06:29:38.667Z,99.90
2017-09-19T06:32:07.391Z,99.90
2017-09-19T06:34:36.450Z,99.90
2017-09-19T06:37:04.752Z,99.90
2017-09-19T06:39:34.207Z,99.90
2017-09-19T06:42:02.509Z,99.90
2017-09-19T06:44:31.526Z,99.90
2017-09-19T06:46:59.865Z,99.90
2017-09-19T06:51:59.277Z,99.90
2017-09-19T06:54:27.600Z,99.90
2017-09-19T06:56:55.879Z,99.90
2017-09-19T06:59:24.628Z,99.90
2017-09-19T07:01:53.702Z,99.90
2017-09-19T07:04:22.015Z,99.90
2017-09-19T07:06:51.202Z,99.90
2017-09-19T07:09:20.288Z,99.90
2017-09-19T10:39:20.612Z,61.90
2017-09-19T10:41:48.880Z,60.50
2017-09-19T10:44:17.163Z,57.60
2017-09-19T10:46:45.528Z,59.00
2017-09-19T10:49:14.153Z,58.90
2017-09-19T10:51:42.578Z,57.60
2017-09-19T10:54:11.654Z,55.30
2017-09-19T10:56:40.731Z,54.50
2017-09-19T11:04:09.676Z,57.50
2017-09-19T11:06:37.971Z,57.40
2017-09-19T11:09:06.332Z,56.10
2017-09-19T11:11:34.650Z,54.80
2017-09-19T11:14:03.740Z,48.90
2017-09-19T11:16:32.060Z,48.80
2017-09-19T11:19:00.724Z,46.00
2017-09-19T11:21:30.049Z,43.40
2017-09-19T11:23:59.122Z,37.60
2017-09-19T11:26:27.430Z,37.60
2017-09-19T11:28:57.042Z,36.10
2017-09-19T11:31:26.084Z,33.30
2017-09-19T12:01:25.457Z,52.30
2017-09-19T12:03:54.108Z,52.30
2017-09-19T12:06:22.404Z,54.30
2017-09-19T12:08:50.700Z,57.30
2017-09-19T12:11:20.137Z,62.10
2017-09-19T12:13:49.163Z,62.60
2017-09-19T12:16:18.321Z,62.60
2017-09-19T12:18:47.387Z,63.90
2017-09-19T12:21:16.495Z,62.50
2017-09-19T12:23:45.500Z,62.50
2017-09-19T12:26:13.801Z,64.50
2017-09-19T12:28:42.882Z,65.50
2017-09-19T12:31:14.168Z,65.40
2017-09-19T12:33:44.730Z,65.90
2017-09-19T12:36:13.290Z,65.90
2017-09-19T12:38:41.649Z,64.80
2017-09-19T12:43:40.659Z,62.60
2017-09-19T12:46:09.645Z,62.30
2017-09-19T12:48:37.938Z,63.50
2017-09-19T12:51:06.240Z,63.10
2017-09-19T12:53:36.293Z,63.90
2017-09-19T12:56:04.940Z,64.00
2017-09-19T12:58:34.889Z,62.80
2017-09-19T13:21:02.843Z,44.00
2017-09-19T13:23:31.353Z,43.90
2017-09-19T13:25:59.682Z,39.50
2017-09-19T13:28:28.733Z,34.30
2017-09-19T13:31:09.721Z,32.40
2017-09-19T13:33:44.927Z,32.30
2017-09-19T13:46:12.611Z,37.80
2017-09-19T13:48:41.676Z,38.30
2017-09-19T13:51:09.951Z,35.30
2017-09-19T13:53:38.308Z,33.50
2017-09-19T13:56:07.342Z,30.60
2017-09-19T13:58:35.656Z,30.60
2017-09-19T14:01:03.952Z,31.30
2017-09-19T14:08:32.518Z,32.50
2017-09-19T14:11:00.838Z,31.60
2017-09-19T14:13:29.160Z,29.60
2017-09-19T14:23:26.861Z,36.60
2017-09-19T14:25:55.966Z,43.20
2017-09-19T14:38:23.568Z,40.30
2017-09-19T14:40:51.879Z,42.50
2017-09-19T14:45:50.805Z,49.50
2017-09-19T14:48:19.122Z,50.00
2017-09-19T14:50:47.826Z,52.10
2017-09-19T14:53:16.151Z,53.50
2017-09-19T14:55:44.482Z,54.80
2017-09-19T14:58:13.550Z,58.50
2017-09-19T15:00:41.834Z,58.50
2017-09-19T15:03:10.893Z,62.00
2017-09-19T15:05:39.215Z,61.90
2017-09-19T15:08:08.291Z,67.40
2017-09-19T15:10:36.594Z,66.30
2017-09-19T15:13:06.395Z,70.40
2017-09-19T15:15:34.707Z,71.10
2017-09-19T15:18:03.782Z,75.10
2017-09-19T15:20:32.696Z,75.20
2017-09-19T15:23:01.591Z,77.20
2017-09-19T15:25:29.866Z,78.90
2017-09-19T15:27:58.947Z,80.70
2017-09-19T15:30:27.248Z,80.70
2017-09-19T15:32:55.578Z,82.60
2017-09-19T15:35:23.860Z,83.80
2017-09-19T15:37:52.179Z,85.60
2017-09-19T15:40:20.500Z,87.00
2017-09-19T15:42:48.995Z,87.10
2017-09-19T15:45:18.032Z,88.50
2017-09-19T15:47:46.339Z,88.40
2017-09-19T15:50:16.254Z,90.80
2017-09-19T15:52:48.926Z,90.80
2017-09-19T15:55:17.244Z,91.40
2017-09-19T15:57:46.310Z,92.70
2017-09-19T16:00:14.639Z,92.60
2017-09-19T16:02:45.733Z,93.10
2017-09-19T16:05:15.151Z,93.40
2017-09-19T16:07:45.327Z,94.30
2017-09-19T16:10:13.620Z,94.30
2017-09-19T16:12:42.946Z,94.80
2017-09-19T16:15:11.569Z,95.00
2017-09-19T16:17:40.649Z,95.90
2017-09-19T16:20:08.929Z,95.80
2017-09-19T16:22:37.255Z,96.30
2017-09-19T16:25:05.572Z,96.70
2017-09-19T16:27:34.594Z,97.00
2017-09-19T16:30:03.223Z,96.80
2017-09-19T16:32:32.306Z,96.80
2017-09-19T16:35:01.407Z,96.90
2017-09-19T16:37:30.222Z,96.80
2017-09-19T16:39:58.515Z,97.00
2017-09-19T16:42:26.831Z,97.20
2017-09-19T16:44:55.233Z,97.40
2017-09-19T16:47:23.523Z,97.30
2017-09-19T16:49:52.660Z,98.10
2017-09-19T16:52:20.948Z,98.10
2017-09-19T16:54:49.225Z,99.00
2017-09-19T16:57:18.613Z,99.10
2017-09-19T16:59:46.889Z,99.60
2017-09-19T17:02:15.229Z,99.80
2017-09-19T17:04:43.536Z,99.90
2017-09-19T17:07:12.867Z,99.90
2017-09-19T17:09:41.898Z,99.90
2017-09-19T17:12:10.228Z,99.90
2017-09-19T17:14:39.319Z,99.90
2017-09-19T17:17:08.379Z,99.90
2017-09-19T17:19:36.690Z,99.90
2017-09-19T17:22:05.630Z,99.90
2017-09-19T17:24:34.644Z,99.90
2017-09-19T17:27:02.948Z,99.90
2017-09-19T17:29:31.747Z,99.90
2017-09-19T17:32:00.094Z,99.90
2017-09-19T17:34:28.374Z,99.90
2017-09-19T17:36:56.689Z,99.90
2017-09-19T17:39:25.233Z,99.90
2017-09-19T17:41:54.049Z,99.90
2017-09-19T17:44:22.349Z,99.90
2017-09-19T17:46:51.370Z,99.90
2017-09-19T17:49:20.454Z,99.90
2017-09-19T17:51:48.756Z,99.90
2017-09-19T17:54:17.819Z,99.90
2017-09-19T17:56:46.123Z,99.90
2017-09-19T17:59:16.675Z,99.90
2017-09-19T18:01:46.035Z,99.90
2017-09-19T18:04:14.360Z,99.90
2017-09-19T18:06:42.652Z,99.90
2017-09-19T18:09:11.617Z,99.90
2017-09-19T18:11:39.883Z,99.90
2017-09-19T18:14:08.263Z,99.90
2017-09-19T18:16:36.547Z,99.90
2017-09-19T18:19:05.472Z,99.90
2017-09-19T18:21:33.754Z,99.90
2017-09-19T18:24:02.048Z,99.90
2017-09-19T18:26:31.110Z,99.90
2017-09-19T18:28:59.444Z,99.90
2017-09-19T18:31:28.910Z,99.90
2017-09-19T18:33:57.308Z,99.90
2017-09-19T18:36:25.649Z,99.90
2017-09-19T18:38:53.986Z,99.90
2017-09-19T18:41:22.784Z,99.90
2017-09-19T18:43:51.431Z,99.90
2017-09-19T18:46:20.644Z,99.90
2017-09-19T18:48:48.926Z,99.90
2017-09-19T18:51:17.689Z,99.90
2017-09-19T18:53:46.093Z,99.90
2017-09-19T18:56:14.391Z,99.90
2017-09-19T18:58:43.073Z,99.90
2017-09-19T19:01:11.419Z,99.90
2017-09-19T19:03:39.712Z,99.90
2017-09-19T19:06:09.064Z,99.90
2017-09-19T19:08:37.362Z,99.90
2017-09-19T19:11:06.412Z,99.90
2017-09-19T19:13:35.003Z,99.90
2017-09-19T19:16:03.350Z,99.90
2017-09-19T19:18:31.655Z,99.90
2017-09-19T19:21:00.360Z,99.90
2017-09-19T19:23:28.722Z,99.90
2017-09-19T19:25:57.032Z,99.90
2017-09-19T19:28:25.375Z,99.90
2017-09-19T19:30:53.703Z,99.90
2017-09-19T19:33:21.994Z,99.90
2017-09-19T19:35:50.291Z,99.90
2017-09-19T19:38:18.628Z,99.90
2017-09-19T19:40:47.631Z,99.90
2017-09-19T19:43:15.982Z,99.90
2017-09-19T19:45:45.044Z,99.90
2017-09-19T19:48:13.413Z,99.90
2017-09-19T19:50:41.728Z,99.90
2017-09-19T19:53:10.846Z,99.90
2017-09-19T19:55:39.176Z,99.90
2017-09-19T19:58:07.491Z,99.90
2017-09-19T20:00:37.331Z,99.90
2017-09-19T20:03:06.396Z,99.90
2017-09-19T20:05:34.699Z,99.90
2017-09-19T20:08:03.015Z,99.90
2017-09-19T20:10:31.354Z,99.90
2017-09-19T20:12:59.653Z,99.90
2017-09-19T20:15:27.952Z,99.90
2017-09-19T20:17:56.303Z,99.90
2017-09-19T20:20:25.354Z,99.90
2017-09-19T20:22:53.671Z,99.90
2017-09-19T20:25:22.758Z,99.90
2017-09-19T20:27:51.052Z,99.90
2017-09-19T20:30:20.115Z,99.90
2017-09-19T20:32:48.428Z,99.90
2017-09-19T20:35:17.204Z,99.90
2017-09-19T20:37:45.946Z,99.90
2017-09-19T20:40:14.270Z,99.90
2017-09-19T20:42:42.576Z,99.90
2017-09-19T20:45:11.534Z,99.90
2017-09-19T20:47:39.857Z,99.90
2017-09-19T20:50:08.167Z,99.90
2017-09-19T20:52:37.216Z,99.90
2017-09-19T20:55:05.546Z,99.90
2017-09-19T20:57:33.847Z,99.90
2017-09-19T21:00:02.758Z,99.90
2017-09-19T21:02:31.100Z,99.90
2017-09-19T21:05:05.888Z,99.90
2017-09-19T21:07:40.356Z,99.90
2017-09-19T21:10:15.091Z,99.90
2017-09-19T21:12:49.018Z,99.90
2017-09-19T21:15:23.036Z,99.90
2017-09-19T21:17:57.034Z,99.90
2017-09-19T21:20:27.009Z,99.90
2017-09-19T21:22:55.509Z,99.90
2017-09-19T21:25:24.622Z,99.90
2017-09-19T21:27:53.677Z,99.90
2017-09-19T21:30:23.027Z,99.90
2017-09-19T21:32:52.739Z,99.90
2017-09-19T21:35:21.797Z,99.90
2017-09-19T21:37:50.095Z,99.90
2017-09-19T21:40:18.442Z,99.90
2017-09-19T21:42:46.751Z,99.90
2017-09-19T21:45:15.108Z,99.90
2017-09-19T21:47:43.418Z,99.90
2017-09-19T21:50:11.740Z,99.90
2017-09-19T21:52:40.107Z,99.90
2017-09-19T21:55:08.447Z,99.90
2017-09-19T21:57:36.738Z,99.90
2017-09-19T22:00:05.092Z,99.90
2017-09-19T22:02:33.415Z,99.90
2017-09-19T22:05:01.720Z,99.90
2017-09-19T22:07:31.199Z,99.90
2017-09-19T22:09:59.515Z,99.90
2017-09-19T22:12:28.584Z,99.90
2017-09-19T22:14:57.519Z,99.90
2017-09-19T22:17:26.561Z,99.90
2017-09-19T22:19:55.535Z,99.90
2017-09-19T22:22:23.909Z,99.90
2017-09-19T22:24:52.290Z,99.90
2017-09-19T22:27:21.347Z,99.90
2017-09-19T22:29:49.675Z,99.90
2017-09-19T22:32:18.956Z,99.90
2017-09-19T22:34:48.044Z,99.90
2017-09-19T22:37:16.381Z,99.90
2017-09-19T22:39:44.698Z,99.90
2017-09-19T22:42:13.079Z,99.90
2017-09-19T22:44:41.448Z,99.90
2017-09-19T22:47:09.755Z,99.90
2017-09-19T22:49:38.069Z,99.90
2017-09-19T22:52:06.408Z,99.90
2017-09-19T22:54:35.435Z,99.90
2017-09-19T22:57:04.531Z,99.90
2017-09-19T22:59:33.593Z,99.90
2017-09-19T23:02:01.951Z,99.90
2017-09-19T23:04:30.246Z,99.90
2017-09-19T23:06:59.037Z,99.90
2017-09-19T23:09:27.346Z,99.90
2017-09-19T23:11:55.898Z,99.90
2017-09-19T23:14:24.286Z,99.90
2017-09-19T23:16:52.576Z,99.90
2017-09-19T23:19:20.887Z,99.90
2017-09-19T23:21:49.678Z,99.90
2017-09-19T23:24:17.975Z,99.90
2017-09-19T23:26:47.020Z,99.90
2017-09-19T23:29:16.252Z,99.90
2017-09-19T23:31:44.566Z,99.90
2017-09-19T23:34:14.304Z,99.90
2017-09-19T23:36:43.367Z,99.90
2017-09-19T23:39:11.711Z,99.90
2017-09-19T23:41:40.011Z,99.90
2017-09-19T23:44:08.299Z,99.90
2017-09-19T23:46:38.879Z,99.90
2017-09-19T23:49:08.227Z,99.90
2017-09-19T23:51:36.663Z,99.90
2017-09-19T23:54:04.973Z,99.90
2017-09-19T23:56:33.303Z,99.90
2017-09-19T23:59:01.610Z,99.90
